createdAt,value
2019-02-16T00:01:11.182Z,68.00
2019-02-16T00:03:40.663Z,67.80
2019-02-16T00:06:10.087Z,68.00
2019-02-16T00:08:39.666Z,68.30
2019-02-16T00:11:09.145Z,68.10
2019-02-16T00:13:38.581Z,68.00
2019-02-16T00:16:07.986Z,67.90
2019-02-16T00:18:37.479Z,67.90
2019-02-16T00:21:06.846Z,67.80
2019-02-16T00:23:36.296Z,67.80
2019-02-16T00:26:05.661Z,67.90
2019-02-16T00:28:35.132Z,67.90
2019-02-16T00:31:04.520Z,67.80
2019-02-16T00:33:33.948Z,67.90
2019-02-16T00:36:03.578Z,68.00
2019-02-16T00:38:33.007Z,67.90
2019-02-16T00:41:02.409Z,67.90
2019-02-16T00:43:31.820Z,67.80
2019-02-16T00:46:01.247Z,67.70
2019-02-16T00:48:30.679Z,67.60
2019-02-16T00:51:00.149Z,67.60
2019-02-16T00:53:29.522Z,67.70
2019-02-16T00:55:58.975Z,67.60
2019-02-16T00:58:28.443Z,67.60
2019-02-16T01:00:57.870Z,68.30
2019-02-16T01:03:27.309Z,67.50
2019-02-16T01:05:56.840Z,67.20
2019-02-16T01:08:26.251Z,67.20
2019-02-16T01:10:55.623Z,67.30
2019-02-16T01:13:25.078Z,67.30
2019-02-16T01:15:54.438Z,67.20
2019-02-16T01:18:23.835Z,67.10
2019-02-16T01:20:53.189Z,67.00
2019-02-16T01:23:22.570Z,67.00
2019-02-16T01:25:52.117Z,66.90
2019-02-16T01:28:21.568Z,66.80
2019-02-16T01:30:50.930Z,67.00
2019-02-16T01:33:20.407Z,67.00
2019-02-16T01:35:49.925Z,67.10
2019-02-16T01:38:19.414Z,67.80
2019-02-16T01:40:48.843Z,67.10
2019-02-16T01:43:18.263Z,67.10
2019-02-16T01:45:47.655Z,67.10
2019-02-16T01:48:17.129Z,67.00
2019-02-16T01:50:46.543Z,67.00
2019-02-16T01:53:15.989Z,66.80
2019-02-16T01:55:47.437Z,67.00
2019-02-16T01:58:16.547Z,66.90
2019-02-16T02:00:45.925Z,66.90
2019-02-16T02:03:15.400Z,67.00
2019-02-16T02:05:44.871Z,67.10
2019-02-16T02:08:14.440Z,67.20
2019-02-16T02:10:43.783Z,67.20
2019-02-16T02:13:13.162Z,67.20
2019-02-16T02:15:42.648Z,67.00
2019-02-16T02:18:12.002Z,67.00
2019-02-16T02:20:41.383Z,66.90
2019-02-16T02:23:10.828Z,66.90
2019-02-16T02:25:40.283Z,67.00
2019-02-16T02:28:09.717Z,66.90
2019-02-16T02:30:39.147Z,66.60
2019-02-16T02:33:08.516Z,66.80
2019-02-16T02:35:38.013Z,67.10
2019-02-16T02:38:07.470Z,67.20
2019-02-16T02:40:36.917Z,67.40
2019-02-16T02:43:06.332Z,67.50
2019-02-16T02:45:35.750Z,67.90
2019-02-16T02:48:05.117Z,68.60
2019-02-16T02:50:34.568Z,69.10
2019-02-16T02:53:04.095Z,69.60
2019-02-16T02:55:33.556Z,69.80
2019-02-16T02:58:03.014Z,70.30
2019-02-16T03:00:32.520Z,70.70
2019-02-16T03:03:02.000Z,70.90
2019-02-16T03:05:31.364Z,71.20
2019-02-16T03:08:00.792Z,71.20
2019-02-16T03:10:30.197Z,71.10
2019-02-16T03:12:59.615Z,71.00
2019-02-16T03:15:29.081Z,70.90
2019-02-16T03:17:58.466Z,71.00
2019-02-16T03:20:27.926Z,71.00
2019-02-16T03:23:13.613Z,70.90
2019-02-16T03:26:08.038Z,70.90
2019-02-16T03:28:53.429Z,71.00
2019-02-16T03:31:54.321Z,71.10
2019-02-16T03:34:31.560Z,71.50
2019-02-16T03:37:40.736Z,71.50
2019-02-16T03:40:10.201Z,71.50
2019-02-16T03:42:39.577Z,70.90
2019-02-16T03:45:09.181Z,70.70
2019-02-16T03:47:38.619Z,70.30
2019-02-16T03:50:08.528Z,70.00
2019-02-16T03:52:38.034Z,69.80
2019-02-16T03:55:07.429Z,69.30
2019-02-16T03:57:36.859Z,69.00
2019-02-16T04:00:07.107Z,69.50
2019-02-16T04:02:36.565Z,68.60
2019-02-16T04:05:06.084Z,68.60
2019-02-16T04:07:36.023Z,68.50
2019-02-16T04:10:05.930Z,68.20
2019-02-16T04:12:35.811Z,69.00
2019-02-16T04:15:05.213Z,68.10
2019-02-16T04:17:34.585Z,68.00
2019-02-16T04:20:04.444Z,67.90
2019-02-16T04:22:33.876Z,68.10
2019-02-16T04:25:03.271Z,68.10
2019-02-16T04:27:32.671Z,68.00
2019-02-16T04:30:02.053Z,68.00
2019-02-16T04:32:31.497Z,68.10
2019-02-16T04:35:00.987Z,68.10
2019-02-16T04:37:30.431Z,68.10
2019-02-16T04:39:59.834Z,68.00
2019-02-16T04:42:29.270Z,67.90
2019-02-16T04:44:58.802Z,67.80
2019-02-16T04:47:28.262Z,67.80
2019-02-16T04:49:57.754Z,68.10
2019-02-16T04:52:34.307Z,69.20
2019-02-16T04:54:58.311Z,68.70
2019-02-16T04:57:27.767Z,68.90
2019-02-16T04:59:57.198Z,69.20
2019-02-16T05:02:26.621Z,69.20
2019-02-16T05:04:56.040Z,69.20
2019-02-16T05:07:25.466Z,69.10
2019-02-16T05:09:54.967Z,68.80
2019-02-16T05:12:24.298Z,68.50
2019-02-16T05:14:53.740Z,67.90
2019-02-16T05:17:23.217Z,67.50
2019-02-16T05:19:52.683Z,67.60
2019-02-16T05:22:22.083Z,67.70
2019-02-16T05:24:51.682Z,67.80
2019-02-16T05:27:21.113Z,67.90
2019-02-16T05:29:50.605Z,68.10
2019-02-16T05:32:19.975Z,68.10
2019-02-16T05:34:49.342Z,67.90
2019-02-16T05:37:18.803Z,67.60
2019-02-16T05:39:48.168Z,67.10
2019-02-16T05:42:17.638Z,67.00
2019-02-16T05:44:47.148Z,67.10
2019-02-16T05:47:16.600Z,67.10
2019-02-16T05:49:45.967Z,67.20
2019-02-16T05:52:15.470Z,67.20
2019-02-16T05:54:44.853Z,67.90
2019-02-16T05:57:14.252Z,67.30
2019-02-16T05:59:43.710Z,67.40
2019-02-16T06:02:13.132Z,67.40
2019-02-16T06:04:42.516Z,67.60
2019-02-16T06:07:11.975Z,67.60
2019-02-16T06:09:41.826Z,67.50
2019-02-16T06:12:11.305Z,67.40
2019-02-16T06:14:43.919Z,67.30
2019-02-16T06:17:13.388Z,67.20
2019-02-16T06:19:43.289Z,67.20
2019-02-16T06:22:12.743Z,67.10
2019-02-16T06:24:42.166Z,66.60
2019-02-16T06:27:11.559Z,66.50
2019-02-16T06:29:40.931Z,66.70
2019-02-16T06:32:10.424Z,66.60
2019-02-16T06:34:39.900Z,66.60
2019-02-16T06:37:28.250Z,66.40
2019-02-16T06:39:57.622Z,66.50
2019-02-16T06:42:27.119Z,66.90
2019-02-16T06:44:56.545Z,66.90
2019-02-16T06:47:25.908Z,67.00
2019-02-16T06:49:55.290Z,67.00
2019-02-16T06:52:24.770Z,67.20
2019-02-16T06:54:54.171Z,67.20
2019-02-16T06:57:31.163Z,67.20
2019-02-16T07:00:00.811Z,67.20
2019-02-16T07:02:31.061Z,67.40
2019-02-16T07:05:00.530Z,67.50
2019-02-16T07:07:29.901Z,67.50
2019-02-16T07:09:59.567Z,67.80
2019-02-16T07:12:29.040Z,68.00
2019-02-16T07:14:58.427Z,68.20
2019-02-16T07:17:55.841Z,68.40
2019-02-16T07:20:25.943Z,68.60
2019-02-16T07:22:55.307Z,68.60
2019-02-16T07:25:24.713Z,68.70
2019-02-16T07:27:54.228Z,68.80
2019-02-16T07:30:23.666Z,68.80
2019-02-16T07:32:53.062Z,68.80
2019-02-16T07:35:22.500Z,68.70
2019-02-16T07:37:51.908Z,68.80
2019-02-16T07:40:21.339Z,68.80
2019-02-16T07:42:59.749Z,69.60
2019-02-16T07:45:49.692Z,69.10
2019-02-16T07:48:38.040Z,69.10
2019-02-16T07:51:14.286Z,69.40
2019-02-16T07:54:02.633Z,69.30
2019-02-16T07:56:45.133Z,70.20
2019-02-16T07:59:33.500Z,71.10
2019-02-16T08:02:17.533Z,71.10
2019-02-16T08:04:54.076Z,71.80
2019-02-16T08:07:36.946Z,71.60
2019-02-16T08:10:34.706Z,71.60
2019-02-16T08:13:29.206Z,71.30
2019-02-16T08:16:11.685Z,71.40
2019-02-16T08:18:53.859Z,71.40
2019-02-16T08:21:35.451Z,71.30
2019-02-16T08:24:32.907Z,71.40
2019-02-16T08:27:24.242Z,71.20
2019-02-16T08:30:01.951Z,71.80
2019-02-16T08:32:37.903Z,71.80
2019-02-16T08:35:32.380Z,72.00
2019-02-16T08:38:29.608Z,72.00
2019-02-16T08:41:17.924Z,72.20
2019-02-16T08:44:06.300Z,72.10
2019-02-16T08:46:52.329Z,72.00
2019-02-16T08:49:55.693Z,71.90
2019-02-16T08:52:34.332Z,71.90
2019-02-16T08:55:25.371Z,71.80
2019-02-16T08:58:04.823Z,72.00
2019-02-16T09:00:47.361Z,71.90
2019-02-16T09:03:44.546Z,71.70
2019-02-16T09:06:31.271Z,71.80
2019-02-16T09:09:19.557Z,72.20
2019-02-16T09:12:02.787Z,72.80
2019-02-16T09:14:50.886Z,72.80
2019-02-16T09:17:39.283Z,72.70
2019-02-16T09:20:27.675Z,74.30
2019-02-16T09:23:03.471Z,74.60
2019-02-16T09:25:50.264Z,74.10
2019-02-16T09:28:38.616Z,73.70
2019-02-16T09:31:16.462Z,73.40
2019-02-16T09:34:19.867Z,73.50
2019-02-16T09:37:02.104Z,74.10
2019-02-16T09:39:46.576Z,73.70
2019-02-16T09:42:41.330Z,73.70
2019-02-16T09:45:27.934Z,73.90
2019-02-16T09:48:18.106Z,74.10
2019-02-16T09:51:05.734Z,73.70
2019-02-16T09:53:54.068Z,73.30
2019-02-16T09:56:46.422Z,72.80
2019-02-16T09:59:46.793Z,72.90
2019-02-16T10:02:33.498Z,73.30
2019-02-16T10:05:33.858Z,72.40
2019-02-16T10:08:34.298Z,72.50
2019-02-16T10:11:22.718Z,72.60
2019-02-16T10:14:13.870Z,72.80
2019-02-16T10:16:51.934Z,72.70
2019-02-16T10:19:33.712Z,72.00
2019-02-16T10:22:19.607Z,71.60
2019-02-16T10:24:56.461Z,71.50
2019-02-16T10:28:02.917Z,70.80
2019-02-16T10:31:09.125Z,70.90
2019-02-16T10:33:45.676Z,71.20
2019-02-16T10:36:30.341Z,71.10
2019-02-16T10:39:10.483Z,70.30
2019-02-16T10:42:01.833Z,71.10
2019-02-16T10:44:59.191Z,71.80
2019-02-16T10:47:46.395Z,72.30
2019-02-16T10:50:40.731Z,72.70
2019-02-16T10:53:31.959Z,74.00
2019-02-16T10:56:25.867Z,74.20
2019-02-16T10:59:12.923Z,74.30
2019-02-16T11:02:00.044Z,74.70
2019-02-16T11:04:48.421Z,74.30
2019-02-16T11:07:48.780Z,73.30
2019-02-16T11:10:37.147Z,72.80
2019-02-16T11:13:17.689Z,73.50
2019-02-16T11:16:11.991Z,73.40
2019-02-16T11:19:03.193Z,73.50
2019-02-16T11:21:50.166Z,74.10
2019-02-16T11:24:44.617Z,74.00
2019-02-16T11:27:32.880Z,74.40
2019-02-16T11:30:33.262Z,73.90
2019-02-16T11:33:21.612Z,73.50
2019-02-16T11:36:19.107Z,73.10
2019-02-16T11:39:19.499Z,73.20
2019-02-16T11:42:16.822Z,73.10
2019-02-16T11:45:02.270Z,73.60
2019-02-16T11:48:00.769Z,72.20
2019-02-16T11:50:49.439Z,72.30
2019-02-16T11:53:29.308Z,72.50
2019-02-16T11:56:07.032Z,73.20
2019-02-16T11:58:53.034Z,73.00
2019-02-16T12:01:53.336Z,73.20
2019-02-16T12:04:40.489Z,72.30
2019-02-16T12:07:27.473Z,72.00
2019-02-16T12:10:21.565Z,71.30
2019-02-16T12:13:09.831Z,72.10
2019-02-16T12:15:55.807Z,71.80
2019-02-16T12:18:36.225Z,70.80
2019-02-16T12:21:23.092Z,70.90
2019-02-16T12:24:11.763Z,71.00
2019-02-16T12:26:58.679Z,71.70
2019-02-16T12:29:53.099Z,71.20
2019-02-16T12:32:47.382Z,70.80
2019-02-16T12:35:34.231Z,70.90
2019-02-16T12:38:18.888Z,70.90
2019-02-16T12:40:57.261Z,68.50
2019-02-16T12:43:36.855Z,67.70
2019-02-16T12:46:23.877Z,67.50
2019-02-16T12:49:00.098Z,68.10
2019-02-16T12:52:03.510Z,68.40
2019-02-16T12:54:50.558Z,68.20
2019-02-16T12:57:44.834Z,68.60
2019-02-16T13:00:36.038Z,68.60
2019-02-16T13:03:33.276Z,68.90
2019-02-16T13:06:25.128Z,68.10
2019-02-16T13:09:18.301Z,68.60
2019-02-16T13:12:02.060Z,67.50
2019-02-16T13:14:53.422Z,67.70
2019-02-16T13:17:38.165Z,67.30
2019-02-16T13:20:25.839Z,67.40
2019-02-16T13:23:03.049Z,67.40
2019-02-16T13:25:38.959Z,67.50
2019-02-16T13:28:33.086Z,67.00
2019-02-16T13:31:08.588Z,67.00
2019-02-16T13:34:02.790Z,67.20
2019-02-16T13:36:38.422Z,67.90
2019-02-16T13:39:24.368Z,68.50
2019-02-16T13:42:00.980Z,68.60
2019-02-16T13:44:44.782Z,67.60
2019-02-16T13:47:19.130Z,68.10
2019-02-16T13:50:10.229Z,68.30
2019-02-16T13:52:44.926Z,68.10
2019-02-16T13:55:42.098Z,67.80
2019-02-16T13:58:19.680Z,67.40
2019-02-16T14:01:17.191Z,67.10
2019-02-16T14:04:11.395Z,67.40
2019-02-16T14:07:05.714Z,67.50
2019-02-16T14:09:51.298Z,67.60
2019-02-16T14:12:40.439Z,67.30
2019-02-16T14:15:40.883Z,67.20
2019-02-16T14:18:10.313Z,67.40
2019-02-16T14:20:39.768Z,67.20
2019-02-16T14:23:09.192Z,67.60
2019-02-16T14:25:46.142Z,67.60
2019-02-16T14:28:15.628Z,67.50
2019-02-16T14:30:45.075Z,67.90
2019-02-16T14:33:14.590Z,68.00
2019-02-16T14:35:44.031Z,68.80
2019-02-16T14:38:32.408Z,67.80
2019-02-16T14:41:01.907Z,67.80
2019-02-16T14:43:31.387Z,67.00
2019-02-16T14:46:00.873Z,66.80
2019-02-16T14:48:30.328Z,66.80
2019-02-16T14:50:59.709Z,67.70
2019-02-16T14:53:29.327Z,67.50
2019-02-16T14:55:58.721Z,67.90
2019-02-16T14:58:28.088Z,67.70
2019-02-16T15:00:57.507Z,67.20
2019-02-16T15:03:26.902Z,67.90
2019-02-16T15:05:56.317Z,68.10
2019-02-16T15:08:25.913Z,67.80
2019-02-16T15:10:55.282Z,67.70
2019-02-16T15:13:24.778Z,67.40
2019-02-16T15:15:54.111Z,67.30
2019-02-16T15:18:23.517Z,67.00
2019-02-16T15:20:52.945Z,66.90
2019-02-16T15:23:22.465Z,66.90
2019-02-16T15:26:00.451Z,67.20
2019-02-16T15:28:23.064Z,68.10
2019-02-16T15:30:52.532Z,67.40
2019-02-16T15:33:21.999Z,67.40
2019-02-16T15:35:51.391Z,67.40
2019-02-16T15:38:20.893Z,66.90
2019-02-16T15:40:50.270Z,66.80
2019-02-16T15:43:19.674Z,67.20
2019-02-16T15:45:49.136Z,68.30
2019-02-16T15:48:18.535Z,67.50
2019-02-16T15:50:47.969Z,67.20
2019-02-16T15:53:17.361Z,67.00
2019-02-16T15:55:46.727Z,66.80
2019-02-16T15:58:16.222Z,67.00
2019-02-16T16:00:45.695Z,67.00
2019-02-16T16:03:15.115Z,67.10
2019-02-16T16:05:44.597Z,67.40
2019-02-16T16:08:27.033Z,67.90
2019-02-16T16:11:02.922Z,67.90
2019-02-16T16:14:06.682Z,67.90
2019-02-16T16:16:55.004Z,68.00
2019-02-16T16:19:41.068Z,68.00
2019-02-16T16:22:32.470Z,67.90
2019-02-16T16:25:29.943Z,67.40
2019-02-16T16:28:25.598Z,67.30
2019-02-16T16:31:17.054Z,67.60
2019-02-16T16:33:57.965Z,68.30
2019-02-16T16:36:45.049Z,68.50
2019-02-16T16:39:24.844Z,68.70
2019-02-16T16:42:04.646Z,68.50
2019-02-16T16:44:47.307Z,68.60
2019-02-16T16:47:35.012Z,68.80
2019-02-16T16:50:22.911Z,68.60
2019-02-16T16:53:20.151Z,68.90
2019-02-16T16:56:28.723Z,69.40
2019-02-16T16:59:04.358Z,69.70
2019-02-16T17:01:54.474Z,69.70
2019-02-16T17:04:33.067Z,69.90
2019-02-16T17:07:20.635Z,70.30
2019-02-16T17:10:10.722Z,70.60
2019-02-16T17:12:50.315Z,70.70
2019-02-16T17:15:39.406Z,71.90
2019-02-16T17:18:27.120Z,71.70
2019-02-16T17:21:05.511Z,71.80
2019-02-16T17:23:59.991Z,72.10
2019-02-16T17:26:53.955Z,72.60
2019-02-16T17:29:45.219Z,72.50
2019-02-16T17:32:21.412Z,72.60
2019-02-16T17:35:08.854Z,72.40
2019-02-16T17:37:45.723Z,72.30
2019-02-16T17:40:29.604Z,72.30
2019-02-16T17:43:21.435Z,72.30
2019-02-16T17:46:19.791Z,72.60
2019-02-16T17:49:11.582Z,72.50
2019-02-16T17:52:15.215Z,72.60
2019-02-16T17:55:06.984Z,72.60
2019-02-16T17:57:44.760Z,72.60
2019-02-16T18:00:36.532Z,72.70
2019-02-16T18:03:17.750Z,72.90
2019-02-16T18:06:10.810Z,72.90
2019-02-16T18:08:58.750Z,73.10
2019-02-16T18:12:03.166Z,73.10
2019-02-16T18:14:44.211Z,72.90
2019-02-16T18:17:32.503Z,72.90
2019-02-16T18:20:14.471Z,72.90
2019-02-16T18:23:04.771Z,73.00
2019-02-16T18:25:55.042Z,73.10
2019-02-16T18:28:42.715Z,73.20
2019-02-16T18:31:30.358Z,73.50
2019-02-16T18:34:09.760Z,73.70
2019-02-16T18:36:57.223Z,73.80
2019-02-16T18:39:37.458Z,74.10
2019-02-16T18:42:35.531Z,74.20
2019-02-16T18:45:23.035Z,74.20
2019-02-16T18:48:17.414Z,74.20
2019-02-16T18:51:04.491Z,74.40
2019-02-16T18:53:56.479Z,74.50
2019-02-16T18:56:44.111Z,74.50
2019-02-16T18:59:35.938Z,74.70
2019-02-16T19:02:27.649Z,74.80
2019-02-16T19:05:16.758Z,75.20
2019-02-16T19:08:03.210Z,75.10
2019-02-16T19:10:49.265Z,75.40
2019-02-16T19:13:50.375Z,75.50
2019-02-16T19:16:37.842Z,75.70
2019-02-16T19:19:35.782Z,75.60
2019-02-16T19:22:23.049Z,75.60
2019-02-16T19:25:09.464Z,75.60
2019-02-16T19:27:57.439Z,75.70
2019-02-16T19:30:49.571Z,75.80
2019-02-16T19:33:37.533Z,75.80
2019-02-16T19:36:35.594Z,75.80
2019-02-16T19:39:16.099Z,76.20
2019-02-16T19:42:05.302Z,76.40
2019-02-16T19:44:57.825Z,76.40
2019-02-16T19:48:01.369Z,76.20
2019-02-16T19:50:53.667Z,76.10
2019-02-16T19:53:39.967Z,76.10
2019-02-16T19:56:35.044Z,76.10
2019-02-16T19:59:22.966Z,76.10
2019-02-16T20:02:13.881Z,76.10
2019-02-16T20:05:15.052Z,76.20
2019-02-16T20:07:59.947Z,76.10
2019-02-16T20:10:51.605Z,75.80
2019-02-16T20:13:43.670Z,75.80
2019-02-16T20:16:19.910Z,75.80
2019-02-16T20:19:07.786Z,75.90
2019-02-16T20:21:55.556Z,76.10
2019-02-16T20:24:33.409Z,76.00
2019-02-16T20:27:22.397Z,75.90
2019-02-16T20:30:26.301Z,75.80
2019-02-16T20:33:08.442Z,75.60
2019-02-16T20:35:56.220Z,75.40
2019-02-16T20:38:43.766Z,75.20
2019-02-16T20:41:23.417Z,75.00
2019-02-16T20:44:21.530Z,74.70
2019-02-16T20:47:02.077Z,74.60
2019-02-16T20:49:40.506Z,74.50
2019-02-16T20:52:19.374Z,74.50
2019-02-16T20:54:58.356Z,74.30
2019-02-16T20:57:48.081Z,74.30
2019-02-16T21:00:53.716Z,74.20
2019-02-16T21:03:41.165Z,74.10
2019-02-16T21:06:48.232Z,74.10
2019-02-16T21:09:49.135Z,74.10
2019-02-16T21:12:36.564Z,74.00
2019-02-16T21:15:25.782Z,74.00
2019-02-16T21:18:13.287Z,74.00
2019-02-16T21:20:53.784Z,74.10
2019-02-16T21:23:51.604Z,74.10
2019-02-16T21:26:39.642Z,74.00
2019-02-16T21:29:20.106Z,74.00
2019-02-16T21:32:11.945Z,74.00
2019-02-16T21:34:59.383Z,73.90
2019-02-16T21:37:51.234Z,73.90
2019-02-16T21:40:37.771Z,73.60
2019-02-16T21:43:24.684Z,73.50
2019-02-16T21:46:01.725Z,73.40
2019-02-16T21:48:39.657Z,73.30
2019-02-16T21:51:20.990Z,73.20
2019-02-16T21:54:21.294Z,73.20
2019-02-16T21:57:27.827Z,73.10
2019-02-16T22:00:13.732Z,73.20
2019-02-16T22:03:10.940Z,73.30
2019-02-16T22:06:04.971Z,73.30
2019-02-16T22:08:51.954Z,73.20
2019-02-16T22:11:43.968Z,73.00
2019-02-16T22:14:13.509Z,72.80
2019-02-16T22:16:42.958Z,72.70
2019-02-16T22:19:12.379Z,72.70
2019-02-16T22:21:41.847Z,72.70
2019-02-16T22:24:11.287Z,72.90
2019-02-16T22:26:40.735Z,72.90
2019-02-16T22:29:10.162Z,72.80
2019-02-16T22:31:39.589Z,72.70
2019-02-16T22:34:09.009Z,72.50
2019-02-16T22:36:38.410Z,72.50
2019-02-16T22:39:08.108Z,72.50
2019-02-16T22:41:37.555Z,72.50
2019-02-16T22:44:07.944Z,73.10
2019-02-16T22:46:37.471Z,72.30
2019-02-16T22:49:06.980Z,72.00
2019-02-16T22:51:36.393Z,71.90
2019-02-16T22:54:05.832Z,72.00
2019-02-16T22:56:35.242Z,71.60
2019-02-16T22:59:04.627Z,71.30
2019-02-16T23:01:34.017Z,70.90
2019-02-16T23:04:03.410Z,70.80
2019-02-16T23:06:32.812Z,70.70
2019-02-16T23:09:02.185Z,70.60
2019-02-16T23:11:31.533Z,70.40
2019-02-16T23:14:01.035Z,70.30
2019-02-16T23:16:30.496Z,70.20
2019-02-16T23:19:00.021Z,69.90
2019-02-16T23:21:29.397Z,70.40
2019-02-16T23:23:59.047Z,69.70
2019-02-16T23:26:29.031Z,69.70
2019-02-16T23:28:58.488Z,69.80
2019-02-16T23:31:27.904Z,69.90
2019-02-16T23:34:16.414Z,70.00
2019-02-16T23:36:45.750Z,70.10
2019-02-16T23:39:15.121Z,70.20
2019-02-16T23:41:44.533Z,70.40
2019-02-16T23:44:13.990Z,70.50
2019-02-16T23:46:43.454Z,70.40
2019-02-16T23:49:12.944Z,70.50
2019-02-16T23:51:42.359Z,70.40
2019-02-16T23:54:11.807Z,70.30
2019-02-16T23:56:41.282Z,70.30
2019-02-16T23:59:10.756Z,70.60
